Time;durP1;ratioP1;P1;durP2;ratioP2;P2;SDS_P1;SDS_P2;PMS_P1;PMS_P2;Temp;Humidity;BMP_temperature;BMP_pressure;BME280_temperature;BME280_humidity;BME280_pressure;Samples;Min_cycle;Max_cycle;Signal;HPM_P1;HPM_P2
2023/11/26 00:02:09;;;;;;;0.38;0.38;;;;;;;0.73;100.00;98425.09;5031570;28;20037;-76
2023/11/26 00:04:35;;;;;;;0.35;0.35;;;;;;;0.94;100.00;98452.78;5035383;28;20115;-77
2023/11/26 00:07:00;;;;;;;0.40;0.40;;;;;;;0.66;100.00;98407.84;5011172;28;20148;-75
2023/11/26 00:09:26;;;;;;;0.30;0.30;;;;;;;0.44;100.00;98350.91;5038424;28;20144;-76
2023/11/26 00:11:52;;;;;;;0.40;0.40;;;;;;;1.10;100.00;98462.34;5034415;28;20114;-76
2023/11/26 00:14:20;;;;;;;0.40;0.40;;;;;;;0.50;100.00;98324.31;5031815;28;20041;-77
2023/11/26 00:16:45;;;;;;;0.30;0.30;;;;;;;1.18;100.00;98436.56;5025566;28;20037;-75
2023/11/26 00:19:11;;;;;;;0.30;0.30;;;;;;;0.95;100.00;98377.03;5022526;28;20057;-76
2023/11/26 00:21:37;;;;;;;0.28;0.28;;;;;;;1.22;100.00;98395.25;5009519;28;20045;-76
2023/11/26 00:24:03;;;;;;;0.40;0.40;;;;;;;0.99;100.00;98319.41;5027122;28;22697;-76
2023/11/26 00:26:29;;;;;;;0.28;0.28;;;;;;;1.11;100.00;98334.09;5025150;28;20698;-77
2023/11/26 00:28:54;;;;;;;2.83;1.05;;;;;;;0.95;100.00;98264.28;5034208;28;20068;-75
2023/11/26 00:31:20;;;;;;;0.30;0.30;;;;;;;1.33;100.00;98337.59;5019730;28;20045;-74
2023/11/26 00:33:48;;;;;;;0.45;0.45;;;;;;;1.12;100.00;98278.97;5024431;28;20507;-76
2023/11/26 00:36:18;;;;;;;0.30;0.30;;;;;;;0.74;100.00;98200.53;5024284;28;20052;-75
2023/11/26 00:38:46;;;;;;;0.35;0.35;;;;;;;0.83;100.00;98190.25;5026223;28;20053;-76
2023/11/26 00:41:13;;;;;;;0.52;0.52;;;;;;;1.18;100.00;98245.44;5022780;28;20037;-76
2023/11/26 00:43:38;;;;;;;0.35;0.35;;;;;;;0.51;100.00;98124.78;5027199;28;20033;-75
2023/11/26 00:46:04;;;;;;;0.30;0.30;;;;;;;1.25;100.00;98267.84;5024887;28;20540;-76
2023/11/26 00:48:30;;;;;;;0.50;0.50;;;;;;;0.69;100.00;98162.69;5018770;28;20585;-76
2023/11/26 00:50:56;;;;;;;0.43;0.43;;;;;;;1.09;100.00;98210.09;5030446;28;20037;-76
2023/11/26 00:53:22;;;;;;;0.40;0.40;;;;;;;0.97;100.00;98181.69;5027406;28;20052;-75
2023/11/26 00:55:47;;;;;;;0.30;0.30;;;;;;;0.47;100.00;98099.81;5026744;28;20042;-76
2023/11/26 00:58:14;;;;;;;0.30;0.30;;;;;;;0.28;100.00;98065.38;5029227;28;20051;-75
2023/11/26 01:00:40;;;;;;;0.32;0.32;;;;;;;0.64;100.00;98129.13;5032537;28;20172;-74
2023/11/26 01:03:06;;;;;;;0.40;0.40;;;;;;;0.31;100.00;98073.16;5000633;28;20049;-75
2023/11/26 01:05:33;;;;;;;0.30;0.30;;;;;;;0.12;100.00;98030.97;5021732;28;20075;-74
2023/11/26 01:07:58;;;;;;;0.30;0.30;;;;;;;-0.74;100.00;97886.38;5025265;28;20041;-74
2023/11/26 01:10:24;;;;;;;0.32;0.32;;;;;;;0.25;100.00;98040.44;5021688;28;20056;-76
2023/11/26 01:12:50;;;;;;;0.30;0.30;;;;;;;0.92;100.00;98142.09;5010061;28;20044;-75
2023/11/26 01:15:15;;;;;;;0.30;0.30;;;;;;;0.68;100.00;98104.16;5028344;28;20068;-75
2023/11/26 01:17:42;;;;;;;0.40;0.40;;;;;;;0.92;100.00;98111.13;5024929;28;20368;-75
2023/11/26 01:20:11;;;;;;;0.20;0.20;;;;;;;0.89;100.00;98111.97;5027477;28;20036;-76
2023/11/26 01:22:38;;;;;;;0.30;0.30;;;;;;;1.15;100.00;98131.81;5002925;28;20037;-76
2023/11/26 01:25:05;;;;;;;0.40;0.40;;;;;;;0.54;100.00;98017.31;5013022;28;20103;-76
2023/11/26 01:27:30;;;;;;;0.30;0.30;;;;;;;0.72;100.00;98062.88;5027489;28;20044;-73
2023/11/26 01:29:56;;;;;;;0.20;0.20;;;;;;;0.79;100.00;98061.19;5024916;28;20124;-76
2023/11/26 01:32:22;;;;;;;0.35;0.35;;;;;;;1.13;100.00;98112.84;5002098;28;20044;-74
2023/11/26 01:34:47;;;;;;;0.40;0.40;;;;;;;0.40;100.00;98013.84;5032601;28;20052;-75
2023/11/26 01:37:13;;;;;;;0.40;0.40;;;;;;;0.95;100.00;98108.53;5030259;28;20456;-75
2023/11/26 01:39:39;;;;;;;0.30;0.30;;;;;;;0.89;100.00;98078.41;5030839;28;20025;-76
2023/11/26 01:42:05;;;;;;;0.28;0.28;;;;;;;0.18;100.00;97981.97;5031479;28;20057;-76
2023/11/26 01:44:31;;;;;;;0.50;0.50;;;;;;;0.80;100.00;98080.97;5029644;28;20041;-75
2023/11/26 01:47:05;;;;;;;0.30;0.30;;;;;;;0.51;100.00;98013.84;5031832;28;20049;-77
2023/11/26 01:49:33;;;;;;;0.40;0.40;;;;;;;0.75;100.00;98050.00;5030878;28;20054;-76
2023/11/26 01:52:05;;;;;;;0.30;0.30;;;;;;;0.68;100.00;98019.00;5029791;28;20188;-77
2023/11/26 01:54:34;;;;;;;0.40;0.40;;;;;;;0.75;100.00;98006.13;5019443;28;20139;-76
2023/11/26 01:57:02;;;;;;;0.35;0.35;;;;;;;0.70;100.00;98014.72;5029822;28;20063;-75
2023/11/26 01:59:28;;;;;;;0.30;0.30;;;;;;;1.33;100.00;98090.44;5025611;28;20045;-76
2023/11/26 02:01:54;;;;;;;0.40;0.40;;;;;;;0.91;100.00;98026.75;5035174;28;20040;-75
2023/11/26 02:04:20;;;;;;;0.25;0.25;;;;;;;-146.26;100.00;59860.63;5027469;28;20049;-75
2023/11/26 02:06:46;;;;;;;0.22;0.22;;;;;;;-146.26;100.00;59860.63;5017315;28;20110;-76
2023/11/26 02:09:13;;;;;;;0.30;0.30;;;;;;;-146.26;100.00;59860.63;5026105;28;20045;-77
2023/11/26 02:11:39;;;;;;;0.40;0.40;;;;;;;-146.26;100.00;59860.63;4999856;28;20048;-75
2023/11/26 02:14:06;;;;;;;0.30;0.30;;;;;;;-146.26;100.00;59860.63;5026347;28;20037;-76
2023/11/26 02:16:32;;;;;;;0.32;0.32;;;;;;;-146.26;100.00;59860.63;5029914;28;20057;-77
2023/11/26 02:18:57;;;;;;;0.30;0.30;;;;;;;-146.26;100.00;59860.63;5028530;28;20056;-76
2023/11/26 02:21:23;;;;;;;1.95;1.85;;;;;;;-146.26;100.00;59860.63;5024224;28;20715;-77
2023/11/26 02:23:49;;;;;;;0.40;0.40;;;;;;;-146.26;100.00;59860.63;5027782;28;20044;-75
2023/11/26 02:26:14;;;;;;;0.30;0.30;;;;;;;-146.26;100.00;59860.63;5020975;28;20440;-78
2023/11/26 02:28:43;;;;;;;0.40;0.40;;;;;;;-146.26;100.00;59860.63;5021640;28;20041;-75
2023/11/26 02:31:10;;;;;;;0.50;0.50;;;;;;;-146.26;100.00;59860.63;5026337;28;20057;-75
2023/11/26 02:33:36;;;;;;;0.30;0.30;;;;;;;-146.26;100.00;59860.63;5019680;28;20050;-77
2023/11/26 02:36:03;;;;;;;0.30;0.30;;;;;;;-146.26;100.00;59860.63;5031121;28;20037;-77
2023/11/26 02:38:29;;;;;;;0.30;0.30;;;;;;;-146.26;100.00;59860.63;5019983;28;20076;-78
2023/11/26 02:40:54;;;;;;;0.40;0.40;;;;;;;-146.26;100.00;59860.63;5036026;28;20470;-76
2023/11/26 02:43:20;;;;;;;0.30;0.30;;;;;;;-146.26;100.00;59860.63;5020814;28;20060;-76
2023/11/26 02:45:45;;;;;;;0.20;0.20;;;;;;;-146.26;100.00;59860.63;5031439;28;20150;-76
2023/11/26 02:48:11;;;;;;;0.40;0.40;;;;;;;-146.26;100.00;59860.63;5028005;28;20064;-77
2023/11/26 02:50:36;;;;;;;0.30;0.30;;;;;;;-146.26;100.00;59860.63;5010191;28;20120;-76
2023/11/26 02:53:02;;;;;;;0.30;0.30;;;;;;;-146.26;100.00;59860.63;5031675;28;20029;-76
2023/11/26 02:55:28;;;;;;;0.30;0.30;;;;;;;-146.26;100.00;59860.63;5027084;28;20045;-76
2023/11/26 02:57:54;;;;;;;0.30;0.30;;;;;;;-146.26;100.00;59860.63;5021906;28;20468;-76
2023/11/26 03:00:20;;;;;;;0.40;0.40;;;;;;;-146.26;100.00;59860.63;5026866;28;20044;-76
2023/11/26 03:02:49;;;;;;;0.30;0.30;;;;;;;-146.26;100.00;59860.63;5023588;28;20033;-76
2023/11/26 03:05:18;;;;;;;0.30;0.30;;;;;;;-146.26;100.00;59860.63;5023648;28;20033;-76
2023/11/26 03:07:46;;;;;;;0.40;0.40;;;;;;;-146.26;100.00;59860.63;5022517;28;20491;-76
2023/11/26 03:13:16;;;;;;;0.30;0.30;;;;;;;-146.26;100.00;59860.63;5023948;28;20106;-76
2023/11/26 03:15:42;;;;;;;0.30;0.30;;;;;;;-146.26;100.00;59860.63;5029249;28;20084;-76
2023/11/26 03:18:12;;;;;;;0.28;0.28;;;;;;;-146.26;100.00;59860.63;5025418;28;20067;-76
2023/11/26 03:20:42;;;;;;;0.30;0.30;;;;;;;-146.26;100.00;59860.63;5022520;28;20571;-75
2023/11/26 03:23:11;;;;;;;0.40;0.40;;;;;;;-146.26;100.00;59860.63;5018494;28;20033;-77
2023/11/26 03:25:38;;;;;;;0.40;0.40;;;;;;;-146.26;100.00;59860.63;5020428;28;20038;-75
2023/11/26 03:28:06;;;;;;;0.30;0.30;;;;;;;-146.26;100.00;59860.63;5025494;28;20509;-75
2023/11/26 03:30:32;;;;;;;0.40;0.40;;;;;;;-146.26;100.00;59860.63;5011660;28;20041;-75
2023/11/26 03:32:58;;;;;;;0.30;0.30;;;;;;;-146.26;100.00;59860.63;5027938;28;20058;-76
2023/11/26 03:35:24;;;;;;;0.30;0.30;;;;;;;-146.26;100.00;59860.63;5017299;28;20041;-76
2023/11/26 03:37:54;;;;;;;0.32;0.32;;;;;;;-146.26;100.00;59860.63;5026077;28;20508;-77
2023/11/26 03:40:23;;;;;;;0.30;0.30;;;;;;;-146.26;100.00;59860.63;5029009;28;20045;-76
2023/11/26 03:42:49;;;;;;;0.40;0.40;;;;;;;-146.26;100.00;59860.63;5033448;28;20065;-76
2023/11/26 03:45:15;;;;;;;0.30;0.30;;;;;;;-146.26;100.00;59860.63;5015761;28;20084;-76
2023/11/26 03:47:41;;;;;;;0.38;0.38;;;;;;;-146.26;100.00;59860.63;5038366;28;20069;-76
2023/11/26 03:50:11;;;;;;;0.30;0.30;;;;;;;-146.26;100.00;59860.63;5029214;28;20085;-76
2023/11/26 03:52:41;;;;;;;0.40;0.40;;;;;;;-146.26;100.00;59860.63;5037840;28;20037;-74
2023/11/26 03:55:08;;;;;;;0.30;0.30;;;;;;;-146.26;100.00;59860.63;5039185;28;20049;-75
2023/11/26 03:57:36;;;;;;;0.60;0.60;;;;;;;-146.26;100.00;59860.63;5014540;28;20037;-76
2023/11/26 04:00:08;;;;;;;0.40;0.40;;;;;;;-146.26;100.00;59860.63;5032933;28;20341;-76
2023/11/26 04:02:35;;;;;;;0.75;0.75;;;;;;;-146.26;100.00;59860.63;5031946;28;20038;-75
2023/11/26 04:05:01;;;;;;;0.50;0.50;;;;;;;-146.26;100.00;59860.63;5022351;28;20029;-75
2023/11/26 04:07:27;;;;;;;0.40;0.40;;;;;;;-146.26;100.00;59860.63;5035434;28;20063;-75
2023/11/26 04:09:52;;;;;;;0.40;0.40;;;;;;;-146.26;100.00;59860.63;5034948;28;20057;-75
2023/11/26 04:12:18;;;;;;;0.30;0.30;;;;;;;-146.26;100.00;59860.63;5026908;28;20077;-75
2023/11/26 04:14:58;;;;;;;0.30;0.30;;;;;;;-146.26;100.00;59860.63;5026457;28;20068;-76
2023/11/26 04:17:25;;;;;;;0.30;0.30;;;;;;;-146.26;100.00;59860.63;5025601;28;20069;-76
2023/11/26 04:19:51;;;;;;;0.30;0.30;;;;;;;-146.26;100.00;59860.63;5028133;28;20045;-76
2023/11/26 04:22:23;;;;;;;0.30;0.30;;;;;;;-146.26;100.00;59860.63;5032954;28;20041;-75
2023/11/26 04:24:50;;;;;;;0.30;0.30;;;;;;;-146.26;100.00;59860.63;5027984;28;20477;-75
2023/11/26 04:27:17;;;;;;;0.40;0.40;;;;;;;-146.26;100.00;59860.63;5032149;28;20156;-75
2023/11/26 04:29:43;;;;;;;0.30;0.30;;;;;;;-146.26;100.00;59860.63;5036398;28;20147;-74
2023/11/26 04:32:09;;;;;;;0.30;0.30;;;;;;;-146.26;100.00;59860.63;5011436;28;20048;-75
2023/11/26 04:34:36;;;;;;;0.40;0.40;;;;;;;-146.26;100.00;59860.63;5029000;28;20051;-75
2023/11/26 04:37:05;;;;;;;0.38;0.38;;;;;;;-146.26;100.00;59860.63;5031147;28;20057;-76
2023/11/26 04:39:31;;;;;;;0.32;0.32;;;;;;;-146.26;100.00;59860.63;5033229;28;20129;-76
2023/11/26 04:41:57;;;;;;;0.70;0.70;;;;;;;-146.26;100.00;59860.63;5027179;28;20156;-75
2023/11/26 04:44:22;;;;;;;0.50;0.50;;;;;;;-146.26;100.00;59860.63;5013184;28;20060;-76
2023/11/26 04:46:49;;;;;;;0.30;0.30;;;;;;;-146.26;100.00;59860.63;5032363;28;20084;-75
2023/11/26 04:49:15;;;;;;;0.40;0.40;;;;;;;-146.26;100.00;59860.63;5023524;28;20049;-76
2023/11/26 04:51:41;;;;;;;0.30;0.30;;;;;;;-146.26;100.00;59860.63;5030836;28;20128;-76
2023/11/26 04:54:11;;;;;;;0.40;0.40;;;;;;;-146.26;100.00;59860.63;5009925;28;20156;-76
2023/11/26 04:56:38;;;;;;;0.30;0.30;;;;;;;-146.26;100.00;59860.63;5023293;28;20095;-77
2023/11/26 04:59:04;;;;;;;0.32;0.32;;;;;;;-146.26;100.00;59860.63;5027159;28;20055;-78
2023/11/26 05:01:30;;;;;;;0.40;0.40;;;;;;;-146.26;100.00;59860.63;5020212;28;20036;-75
2023/11/26 05:03:58;;;;;;;0.55;0.55;;;;;;;-146.26;100.00;59860.63;5035392;28;20082;-75
2023/11/26 05:06:23;;;;;;;0.95;0.95;;;;;;;-146.26;100.00;59860.63;5031601;28;20041;-76
2023/11/26 05:08:49;;;;;;;0.38;0.38;;;;;;;-146.26;100.00;59860.63;5031481;28;20060;-77
2023/11/26 05:11:15;;;;;;;0.38;0.38;;;;;;;-146.26;100.00;59860.63;5027197;28;20515;-76
2023/11/26 05:13:42;;;;;;;0.30;0.30;;;;;;;-146.26;100.00;59860.63;5031911;28;20029;-75
2023/11/26 05:16:08;;;;;;;0.30;0.30;;;;;;;-146.26;100.00;59860.63;5024360;28;20576;-75
2023/11/26 05:18:33;;;;;;;0.30;0.30;;;;;;;-146.26;100.00;59860.63;5028195;28;20061;-76
2023/11/26 05:20:59;;;;;;;0.35;0.35;;;;;;;-146.26;100.00;59860.63;5024213;28;20077;-75
2023/11/26 05:23:25;;;;;;;0.20;0.20;;;;;;;-146.26;100.00;59860.63;5019382;28;20038;-75
2023/11/26 05:25:52;;;;;;;0.22;0.22;;;;;;;-146.26;100.00;59860.63;5007083;28;20045;-76
2023/11/26 05:28:18;;;;;;;0.38;0.38;;;;;;;-146.26;100.00;59860.63;5029891;28;20126;-77
2023/11/26 05:30:44;;;;;;;0.35;0.35;;;;;;;-146.26;100.00;59860.63;5030740;28;20053;-76
2023/11/26 05:33:09;;;;;;;0.30;0.30;;;;;;;-146.26;100.00;59860.63;5023777;28;20046;-76
2023/11/26 05:35:36;;;;;;;0.38;0.38;;;;;;;-146.26;100.00;59860.63;5024533;28;20064;-75
2023/11/26 05:38:03;;;;;;;14.82;14.00;;;;;;;-146.26;100.00;59860.63;5026557;28;20608;-75
2023/11/26 05:40:29;;;;;;;0.30;0.30;;;;;;;-146.26;100.00;59860.63;5030889;28;20033;-76
2023/11/26 05:42:56;;;;;;;0.20;0.20;;;;;;;-146.26;100.00;59860.63;5032208;28;20048;-75
2023/11/26 05:45:22;;;;;;;0.30;0.30;;;;;;;-146.26;100.00;59860.63;5016729;28;20048;-76
2023/11/26 05:47:48;;;;;;;0.30;0.30;;;;;;;-146.26;100.00;59860.63;5018064;28;20096;-76
2023/11/26 05:50:15;;;;;;;0.30;0.30;;;;;;;-146.26;100.00;59860.63;5015751;28;20037;-76
2023/11/26 05:52:43;;;;;;;0.30;0.30;;;;;;;-146.26;100.00;59860.63;5032048;28;20492;-75
2023/11/26 05:55:08;;;;;;;0.30;0.30;;;;;;;-146.26;100.00;59860.63;5031143;28;20521;-74
2023/11/26 05:57:34;;;;;;;0.40;0.40;;;;;;;-146.26;100.00;59860.63;5033605;28;20037;-75
2023/11/26 06:00:00;;;;;;;0.40;0.40;;;;;;;-146.26;100.00;59860.63;5029468;28;20052;-75
2023/11/26 06:02:26;;;;;;;0.30;0.30;;;;;;;-146.26;100.00;59860.63;5029950;28;20060;-76
2023/11/26 06:04:51;;;;;;;0.30;0.30;;;;;;;-146.26;100.00;59860.63;5031620;28;20251;-75
2023/11/26 06:07:17;;;;;;;0.40;0.40;;;;;;;-146.26;100.00;59860.63;5004821;28;20037;-75
2023/11/26 06:09:43;;;;;;;0.30;0.30;;;;;;;-146.26;100.00;59860.63;5031431;28;20072;-75
2023/11/26 06:12:09;;;;;;;0.43;0.43;;;;;;;-146.26;100.00;59860.63;5015905;28;20132;-76
2023/11/26 06:14:36;;;;;;;0.40;0.40;;;;;;;-146.26;100.00;59860.63;5025380;28;20508;-75
2023/11/26 06:17:01;;;;;;;0.30;0.30;;;;;;;-146.26;100.00;59860.63;5021660;28;20045;-77
2023/11/26 06:19:28;;;;;;;0.30;0.30;;;;;;;-146.26;100.00;59860.63;5022603;28;20030;-74
2023/11/26 06:21:53;;;;;;;0.65;0.65;;;;;;;-146.26;100.00;59860.63;5017158;28;20184;-74
2023/11/26 06:24:19;;;;;;;0.30;0.30;;;;;;;-146.26;100.00;59860.63;5023639;28;20135;-74
2023/11/26 06:26:44;;;;;;;1.15;1.15;;;;;;;-146.26;100.00;59860.63;5016655;28;20045;-74
2023/11/26 06:29:11;;;;;;;0.30;0.30;;;;;;;-146.26;100.00;59860.63;5029194;28;20450;-75
2023/11/26 06:31:37;;;;;;;0.40;0.40;;;;;;;-146.26;100.00;59860.63;5029304;28;20021;-75
2023/11/26 06:34:03;;;;;;;0.40;0.40;;;;;;;-146.26;100.00;59860.63;5022113;28;20053;-74
2023/11/26 06:36:29;;;;;;;0.38;0.38;;;;;;;-146.26;100.00;59860.63;5029471;28;20041;-75
2023/11/26 06:38:56;;;;;;;0.32;0.32;;;;;;;-146.26;100.00;59860.63;5027976;28;20084;-75
2023/11/26 06:41:29;;;;;;;0.30;0.30;;;;;;;-146.26;100.00;59860.63;5023178;28;20049;-76
2023/11/26 06:43:56;;;;;;;0.30;0.30;;;;;;;-146.26;100.00;59860.63;5025894;28;20029;-74
2023/11/26 06:46:23;;;;;;;0.30;0.30;;;;;;;-146.26;100.00;59860.63;5019094;28;20160;-76
2023/11/26 06:48:50;;;;;;;0.30;0.30;;;;;;;-146.26;100.00;59860.63;4992229;28;20080;-76
2023/11/26 06:51:20;;;;;;;0.30;0.30;;;;;;;-146.26;100.00;59860.63;5023138;28;20156;-76
2023/11/26 06:53:48;;;;;;;0.40;0.40;;;;;;;-146.26;100.00;59860.63;5026679;28;20073;-75
2023/11/26 06:56:15;;;;;;;0.43;0.43;;;;;;;-146.26;100.00;59860.63;5034036;28;20021;-75
2023/11/26 06:58:42;;;;;;;0.30;0.30;;;;;;;-146.26;100.00;59860.63;5032720;28;20043;-75
2023/11/26 07:01:07;;;;;;;0.40;0.40;;;;;;;-146.26;100.00;59860.63;4995310;28;20103;-76
2023/11/26 07:03:34;;;;;;;10.70;10.05;;;;;;;-146.26;100.00;59860.63;4991194;28;20505;-76
2023/11/26 07:06:11;;;;;;;3.40;1.35;;;;;;;-146.26;100.00;59860.63;5014351;28;20042;-76
2023/11/26 07:08:38;;;;;;;0.73;0.73;;;;;;;-146.26;100.00;59860.63;5022138;28;20057;-77
2023/11/26 07:11:07;;;;;;;4.75;2.97;;;;;;;-146.26;100.00;59860.63;5015076;28;20259;-77
2023/11/26 07:13:33;;;;;;;0.28;0.28;;;;;;;-146.26;100.00;59860.63;5019253;28;20040;-76
2023/11/26 07:15:59;;;;;;;0.30;0.30;;;;;;;-146.26;100.00;59860.63;5026495;28;20057;-77
2023/11/26 07:18:25;;;;;;;0.40;0.40;;;;;;;-146.26;100.00;59860.63;5021506;28;20041;-76
2023/11/26 07:20:51;;;;;;;0.35;0.35;;;;;;;-146.26;100.00;59860.63;5017788;28;20049;-76
2023/11/26 07:23:17;;;;;;;0.30;0.30;;;;;;;-146.26;100.00;59860.63;5023199;28;20038;-76
2023/11/26 07:25:43;;;;;;;0.30;0.30;;;;;;;-146.26;100.00;59860.63;5024422;28;20520;-76
2023/11/26 07:28:11;;;;;;;1.02;1.02;;;;;;;-146.26;100.00;59860.63;5028030;28;20516;-77
2023/11/26 07:30:42;;;;;;;0.60;0.60;;;;;;;-146.26;100.00;59860.63;4999091;28;20064;-76
2023/11/26 07:33:07;;;;;;;0.40;0.40;;;;;;;-146.26;100.00;59860.63;5018067;28;20049;-77
2023/11/26 07:35:34;;;;;;;0.50;0.50;;;;;;;-146.26;100.00;59860.63;5026180;28;20394;-75
2023/11/26 07:38:01;;;;;;;0.20;0.20;;;;;;;-146.26;100.00;59860.63;5027016;28;20036;-76
2023/11/26 07:40:31;;;;;;;0.30;0.30;;;;;;;-146.26;100.00;59860.63;5021804;28;20182;-75
2023/11/26 07:42:56;;;;;;;0.40;0.40;;;;;;;-146.26;100.00;59860.63;5025257;28;20045;-75
2023/11/26 07:45:22;;;;;;;0.30;0.30;;;;;;;-146.26;100.00;59860.63;5026946;28;20072;-76
2023/11/26 07:47:47;;;;;;;0.30;0.30;;;;;;;-146.26;100.00;59860.63;5027155;28;20277;-77
2023/11/26 07:50:14;;;;;;;0.20;0.20;;;;;;;-146.26;100.00;59860.63;5024557;28;20155;-76
2023/11/26 07:52:39;;;;;;;0.38;0.38;;;;;;;-146.26;100.00;59860.63;4999978;28;20038;-76
2023/11/26 07:55:06;;;;;;;0.40;0.40;;;;;;;-146.26;100.00;59860.63;5039341;28;20060;-76
2023/11/26 07:57:33;;;;;;;0.28;0.28;;;;;;;-146.26;100.00;59860.63;5022725;28;20164;-79
2023/11/26 07:59:59;;;;;;;0.40;0.40;;;;;;;-146.26;100.00;59860.63;5014253;28;20111;-76
2023/11/26 08:02:26;;;;;;;0.40;0.40;;;;;;;-146.26;100.00;59860.63;5014256;28;20452;-76
2023/11/26 08:04:55;;;;;;;0.80;0.80;;;;;;;-146.26;100.00;59860.63;5034897;28;20822;-75
2023/11/26 08:07:24;;;;;;;0.40;0.40;;;;;;;-146.26;100.00;59860.63;5004297;28;20115;-76
2023/11/26 08:10:18;;;;;;;0.30;0.30;;;;;;;-146.26;100.00;59860.63;5020465;28;20042;-76
2023/11/26 08:12:45;;;;;;;;;;;;;;;-146.26;100.00;59860.63;5005264;28;20074;-77
2023/11/26 08:15:14;;;;;;;0.38;0.38;;;;;;;-146.26;100.00;59860.63;5027514;28;19921;-75
2023/11/26 08:17:41;;;;;;;0.38;0.38;;;;;;;-146.26;100.00;59860.63;5027417;28;20115;-76
2023/11/26 08:20:10;;;;;;;0.30;0.30;;;;;;;-146.26;100.00;59860.63;5028384;28;20037;-76
2023/11/26 08:22:40;;;;;;;0.40;0.40;;;;;;;-146.26;100.00;59860.63;5025584;28;20091;-74
2023/11/26 08:25:17;;;;;;;0.50;0.50;;;;;;;-146.26;100.00;59860.63;5020838;28;20046;-75
2023/11/26 08:27:46;;;;;;;0.28;0.28;;;;;;;-146.26;100.00;59860.63;5016462;28;20045;-77
2023/11/26 08:30:15;;;;;;;0.50;0.50;;;;;;;-146.26;100.00;59860.63;5027298;28;20144;-76
2023/11/26 08:32:44;;;;;;;0.28;0.28;;;;;;;-146.26;100.00;59860.63;5007455;28;23757;-76
2023/11/26 08:35:14;;;;;;;0.52;0.52;;;;;;;-146.26;100.00;59860.63;5022021;28;20038;-77
2023/11/26 08:37:43;;;;;;;0.30;0.30;;;;;;;-146.26;100.00;59860.63;5029788;28;20044;-82
2023/11/26 08:40:13;;;;;;;1.00;1.00;;;;;;;-146.26;100.00;59860.63;5025444;28;20370;-78
2023/11/26 08:42:41;;;;;;;0.28;0.28;;;;;;;-146.26;100.00;59860.63;5018885;28;20092;-78
2023/11/26 08:45:10;;;;;;;0.30;0.30;;;;;;;-146.26;100.00;59860.63;5022532;28;20153;-75
2023/11/26 08:47:54;;;;;;;0.35;0.35;;;;;;;2.78;100.00;98589.72;5070780;27;20755;-74
2023/11/26 08:50:21;;;;;;;0.30;0.30;;;;;;;2.86;100.00;98599.25;5052486;28;20045;-75
2023/11/26 08:52:46;;;;;;;0.47;0.40;;;;;;;2.16;100.00;98487.81;5056232;28;20044;-74
2023/11/26 08:55:12;;;;;;;0.63;0.63;;;;;;;2.75;100.00;98568.13;5049579;28;20044;-74
2023/11/26 08:57:41;;;;;;;0.30;0.30;;;;;;;1.97;100.00;98474.81;5051979;28;20049;-75
2023/11/26 09:00:09;;;;;;;0.50;0.50;;;;;;;2.85;100.00;98581.09;5053264;28;20073;-74
2023/11/26 09:02:41;;;;;;;0.40;0.40;;;;;;;2.31;100.00;98501.63;5051739;28;20041;-75
2023/11/26 09:05:10;;;;;;;0.43;0.43;;;;;;;2.65;100.00;98575.91;5047874;28;20384;-76
2023/11/26 09:07:39;;;;;;;1.65;1.55;;;;;;;2.20;100.00;98477.47;5066551;28;20044;-74
2023/11/26 09:10:06;;;;;;;0.63;0.63;;;;;;;2.90;100.00;98581.97;5029850;28;20053;-74
2023/11/26 09:12:31;;;;;;;0.68;0.68;;;;;;;1.88;100.00;98477.38;5048359;28;20418;-74
2023/11/26 09:14:57;;;;;;;0.40;0.40;;;;;;;2.52;100.00;98543.94;5055549;28;20036;-76
2023/11/26 09:17:24;;;;;;;2.58;2.47;;;;;;;2.70;100.00;98574.19;5050245;28;20048;-75
2023/11/26 09:19:54;;;;;;;0.50;0.50;;;;;;;2.86;100.00;98590.63;5086950;28;20036;-75
2023/11/26 09:22:21;;;;;;;0.30;0.30;;;;;;;2.93;100.00;98584.59;5050166;28;20483;-75
2023/11/26 09:24:48;;;;;;;5.05;4.78;;;;;;;3.11;100.00;98607.03;5073721;28;20440;-77
2023/11/26 09:27:15;;;;;;;0.40;0.40;;;;;;;2.60;100.00;98507.69;5041306;28;20055;-76
2023/11/26 09:29:40;;;;;;;1.27;1.23;;;;;;;3.11;100.00;98619.97;5042225;28;20449;-76
2023/11/26 09:32:06;;;;;;;0.45;0.45;;;;;;;2.85;100.00;98596.66;5061945;28;20228;-76
2023/11/26 09:34:32;;;;;;;6.88;6.30;;;;;;;3.01;100.00;98595.78;5058566;28;20039;-76
2023/11/26 09:37:03;;;;;;;0.30;0.30;;;;;;;2.48;100.00;98530.13;5049263;28;21874;-76
2023/11/26 09:39:29;;;;;;;2.83;2.70;;;;;;;2.50;100.00;98532.72;5056114;28;20041;-76
2023/11/26 09:41:57;;;;;;;2.17;2.08;;;;;;;2.80;100.00;98564.69;5055445;28;20033;-75
2023/11/26 09:44:22;;;;;;;0.30;0.30;;;;;;;2.98;100.00;98626.03;5057017;28;20052;-76
2023/11/26 09:46:50;;;;;;;7.25;6.90;;;;;;;2.65;100.00;98531.91;5058634;28;20087;-73
2023/11/26 09:49:16;;;;;;;2.15;2.05;;;;;;;2.78;100.00;98535.34;5050494;28;20499;-75
2023/11/26 09:51:43;;;;;;;0.40;0.40;;;;;;;3.29;100.00;98632.09;5046294;28;20111;-75
2023/11/26 09:54:10;;;;;;;0.40;0.40;;;;;;;3.40;100.00;98629.53;5051342;28;20044;-74
2023/11/26 09:56:37;;;;;;;0.40;0.40;;;;;;;3.12;100.00;98616.53;5056755;28;20056;-75
2023/11/26 09:59:08;;;;;;;0.57;0.57;;;;;;;2.88;100.00;98530.19;5075391;28;20103;-80
2023/11/26 10:01:33;;;;;;;0.40;0.40;;;;;;;2.54;100.00;98503.38;5039861;28;20049;-76
2023/11/26 10:04:01;;;;;;;0.50;0.50;;;;;;;3.42;100.00;98609.63;5036969;28;20368;-76
2023/11/26 10:06:27;;;;;;;0.40;0.40;;;;;;;3.48;100.00;98623.44;5043963;28;20499;-75
2023/11/26 10:08:53;;;;;;;0.30;0.30;;;;;;;3.52;100.00;98637.28;5042043;28;20450;-76
2023/11/26 10:11:28;;;;;;;0.30;0.30;;;;;;;3.32;100.00;98601.00;5038698;28;20044;-76
2023/11/26 10:13:55;;;;;;;0.43;0.43;;;;;;;3.47;100.00;98639.88;5037569;28;20060;-75
2023/11/26 10:16:33;;;;;;;0.30;0.30;;;;;;;3.20;100.00;98531.03;5040409;28;20049;-74
2023/11/26 10:19:03;;;;;;;0.55;0.55;;;;;;;3.80;100.00;98654.53;5041822;28;20084;-74
2023/11/26 10:21:29;;;;;;;0.40;0.40;;;;;;;3.28;100.00;98558.66;5041251;28;20053;-74
2023/11/26 10:23:55;;;;;;;2.58;2.47;;;;;;;3.53;100.00;98585.41;5044468;28;20147;-74
2023/11/26 10:26:23;;;;;;;0.57;0.57;;;;;;;3.41;100.00;98550.88;5043800;28;20048;-73
2023/11/26 10:29:01;;;;;;;0.88;0.88;;;;;;;4.09;100.00;98651.03;5035544;28;20045;-75
2023/11/26 10:31:26;;;;;;;0.40;0.40;;;;;;;3.59;100.00;98576.78;5038703;28;20693;-74
2023/11/26 10:33:52;;;;;;;0.30;0.30;;;;;;;3.74;100.00;98591.44;5036687;28;20049;-79
2023/11/26 10:36:30;;;;;;;1.60;1.50;;;;;;;3.31;100.00;98558.66;5033094;28;20053;-79
2023/11/26 10:38:58;;;;;;;1.10;1.10;;;;;;;2.90;100.00;98481.84;5042398;28;20041;-79
2023/11/26 10:41:24;;;;;;;0.30;0.30;;;;;;;3.53;100.00;98556.03;5043996;28;20044;-78
2023/11/26 10:43:55;;;;;;;0.70;0.70;;;;;;;3.99;100.00;98634.63;5042832;28;20041;-79
2023/11/26 10:46:25;;;;;;;0.40;0.40;;;;;;;4.00;100.00;98613.00;5054020;28;20058;-79
2023/11/26 10:49:14;;;;;;;0.50;0.40;;;;;;;4.18;100.00;98639.75;5030302;28;20051;-79
2023/11/26 10:51:51;;;;;;;1.30;1.27;;;;;;;4.12;100.00;98638.06;5038180;28;20054;-77
2023/11/26 10:54:25;;;;;;;0.28;0.28;;;;;;;4.55;100.00;98674.25;5037969;28;20045;-79
2023/11/26 10:56:54;;;;;;;0.77;0.77;;;;;;;3.75;100.00;98591.44;5047956;28;20080;-78
2023/11/26 10:59:22;;;;;;;0.35;0.35;;;;;;;3.96;100.00;98579.28;5039558;28;20508;-77
2023/11/26 11:01:48;;;;;;;0.40;0.40;;;;;;;4.10;100.00;98590.47;5042293;28;20086;-76
2023/11/26 11:04:15;;;;;;;0.40;0.40;;;;;;;4.81;100.00;98684.53;5038526;28;20045;-76
2023/11/26 11:06:41;;;;;;;0.75;0.75;;;;;;;4.57;100.00;98653.47;5045513;28;20052;-76
2023/11/26 11:09:13;;;;;;;0.65;0.40;;;;;;;4.49;100.00;98670.81;5058692;28;20090;-76
2023/11/26 11:12:08;;;;;;;1.27;1.27;;;;;;;4.35;100.00;98596.41;5038789;28;20127;-76
2023/11/26 11:14:34;;;;;;;0.40;0.40;;;;;;;4.51;100.00;98611.94;5052800;28;20103;-77
2023/11/26 11:16:59;;;;;;;0.55;0.55;;;;;;;4.60;100.00;98622.28;5056645;28;20037;-75
2023/11/26 11:20:07;;;;;;;1.23;1.15;;;;;;;5.20;100.00;98687.78;5042495;28;20041;-80
2023/11/26 11:22:34;;;;;;;0.25;0.25;;;;;;;5.13;100.00;98688.69;5043504;28;20045;-80
2023/11/26 11:25:17;;;;;;;0.30;0.30;;;;;;;5.05;100.00;98657.53;5055164;28;20069;-75